sensor_id;sensor_type;location;lat;lon;timestamp;pressure;altitude;pressure_sealevel;temperature;humidity
71889;BME280;59762;49.998;14.858;2022-09-06T00:00:51;97826.50;;;14.87;90.83
71889;BME280;59762;49.998;14.858;2022-09-06T00:03:17;97822.19;;;14.86;90.66
71889;BME280;59762;49.998;14.858;2022-09-06T00:05:43;97818.69;;;14.85;91.12
71889;BME280;59762;49.998;14.858;2022-09-06T00:08:09;97816.00;;;14.85;90.84
71889;BME280;59762;49.998;14.858;2022-09-06T00:10:34;97813.56;;;14.84;90.60
71889;BME280;59762;49.998;14.858;2022-09-06T00:13:06;97814.59;;;14.83;90.80
71889;BME280;59762;49.998;14.858;2022-09-06T00:15:33;97814.38;;;14.84;90.37
71889;BME280;59762;49.998;14.858;2022-09-06T00:18:00;97810.09;;;14.83;89.97
71889;BME280;59762;49.998;14.858;2022-09-06T00:20:27;97813.78;;;14.82;90.38
71889;BME280;59762;49.998;14.858;2022-09-06T00:22:57;97805.53;;;14.84;89.80
71889;BME280;59762;49.998;14.858;2022-09-06T00:25:23;97803.06;;;14.82;89.41
71889;BME280;59762;49.998;14.858;2022-09-06T00:27:54;97806.56;;;14.83;89.81
71889;BME280;59762;49.998;14.858;2022-09-06T00:30:20;97807.84;;;14.80;89.16
71889;BME280;59762;49.998;14.858;2022-09-06T00:32:45;97801.44;;;14.81;89.11
71889;BME280;59762;49.998;14.858;2022-09-06T00:35:11;97806.00;;;14.81;89.50
71889;BME280;59762;49.998;14.858;2022-09-06T00:37:37;97816.16;;;14.79;88.86
71889;BME280;59762;49.998;14.858;2022-09-06T00:40:02;97813.22;;;14.80;88.59
71889;BME280;59762;49.998;14.858;2022-09-06T00:42:28;97808.91;;;14.79;88.69
71889;BME280;59762;49.998;14.858;2022-09-06T00:44:54;97804.81;;;14.77;88.09
71889;BME280;59762;49.998;14.858;2022-09-06T00:47:19;97800.97;;;14.73;88.78
71889;BME280;59762;49.998;14.858;2022-09-06T00:49:48;97801.31;;;14.64;89.59
71889;BME280;59762;49.998;14.858;2022-09-06T00:52:16;97798.50;;;14.59;90.01
71889;BME280;59762;49.998;14.858;2022-09-06T00:54:43;97803.75;;;14.54;89.80
71889;BME280;59762;49.998;14.858;2022-09-06T00:57:10;97797.44;;;14.49;90.36
71889;BME280;59762;49.998;14.858;2022-09-06T00:59:38;97794.94;;;14.47;89.69
71889;BME280;59762;49.998;14.858;2022-09-06T01:02:05;97796.25;;;14.45;90.38
71889;BME280;59762;49.998;14.858;2022-09-06T01:04:31;97794.84;;;14.42;90.21
71889;BME280;59762;49.998;14.858;2022-09-06T01:07:19;97802.50;;;14.38;90.16
71889;BME280;59762;49.998;14.858;2022-09-06T01:09:59;97797.28;;;14.32;90.81
71889;BME280;59762;49.998;14.858;2022-09-06T01:15:41;97789.91;;;14.27;90.92
71889;BME280;59762;49.998;14.858;2022-09-06T01:23:54;97781.06;;;14.27;89.48
71889;BME280;59762;49.998;14.858;2022-09-06T01:26:47;97776.75;;;14.26;90.19
71889;BME280;59762;49.998;14.858;2022-09-06T01:32:14;97768.09;;;14.12;90.99
71889;BME280;59762;49.998;14.858;2022-09-06T01:34:47;97769.63;;;14.08;91.63
71889;BME280;59762;49.998;14.858;2022-09-06T01:37:16;97778.09;;;14.05;92.57
71889;BME280;59762;49.998;14.858;2022-09-06T01:39:45;97777.97;;;14.00;92.55
71889;BME280;59762;49.998;14.858;2022-09-06T01:42:16;97779.84;;;13.99;92.42
71889;BME280;59762;49.998;14.858;2022-09-06T01:44:46;97786.69;;;13.95;92.09
71889;BME280;59762;49.998;14.858;2022-09-06T01:55:50;97776.22;;;14.05;91.64
71889;BME280;59762;49.998;14.858;2022-09-06T02:06:37;97779.19;;;14.27;87.64
71889;BME280;59762;49.998;14.858;2022-09-06T02:09:09;97780.81;;;14.28;87.59
71889;BME280;59762;49.998;14.858;2022-09-06T02:11:44;97790.28;;;14.31;88.13
71889;BME280;59762;49.998;14.858;2022-09-06T02:14:20;97780.94;;;14.33;88.07
71889;BME280;59762;49.998;14.858;2022-09-06T02:16:48;97782.13;;;14.37;88.26
71889;BME280;59762;49.998;14.858;2022-09-06T02:19:21;97787.72;;;14.36;87.50
71889;BME280;59762;49.998;14.858;2022-09-06T02:21:50;97793.78;;;14.43;87.47
71889;BME280;59762;49.998;14.858;2022-09-06T02:24:22;97793.78;;;14.43;87.12
71889;BME280;59762;49.998;14.858;2022-09-06T02:26:50;97796.00;;;14.46;86.85
71889;BME280;59762;49.998;14.858;2022-09-06T02:29:16;97792.28;;;14.47;86.08
71889;BME280;59762;49.998;14.858;2022-09-06T02:31:47;97784.63;;;14.51;85.92
71889;BME280;59762;49.998;14.858;2022-09-06T02:34:15;97783.56;;;14.52;86.65
71889;BME280;59762;49.998;14.858;2022-09-06T02:36:42;97782.75;;;14.51;85.92
71889;BME280;59762;49.998;14.858;2022-09-06T02:39:08;97780.56;;;14.48;86.74
71889;BME280;59762;49.998;14.858;2022-09-06T02:41:34;97787.97;;;14.46;86.93
71889;BME280;59762;49.998;14.858;2022-09-06T02:44:00;97784.72;;;14.44;87.92
71889;BME280;59762;49.998;14.858;2022-09-06T02:46:26;97783.91;;;14.44;86.75
71889;BME280;59762;49.998;14.858;2022-09-06T02:48:51;97788.91;;;14.40;88.32
71889;BME280;59762;49.998;14.858;2022-09-06T02:51:17;97792.75;;;14.44;88.40
71889;BME280;59762;49.998;14.858;2022-09-06T02:53:43;97794.72;;;14.37;87.54
71889;BME280;59762;49.998;14.858;2022-09-06T02:56:08;97787.00;;;14.29;89.69
71889;BME280;59762;49.998;14.858;2022-09-06T02:58:34;97792.22;;;14.24;89.81
71889;BME280;59762;49.998;14.858;2022-09-06T03:01:00;97787.44;;;14.14;90.03
71889;BME280;59762;49.998;14.858;2022-09-06T03:03:26;97791.38;;;14.11;89.53
71889;BME280;59762;49.998;14.858;2022-09-06T03:05:53;97786.25;;;14.10;89.46
71889;BME280;59762;49.998;14.858;2022-09-06T03:08:20;97790.13;;;14.14;88.77
71889;BME280;59762;49.998;14.858;2022-09-06T03:10:48;97777.78;;;14.13;88.90
71889;BME280;59762;49.998;14.858;2022-09-06T03:13:14;97776.34;;;14.10;90.51
71889;BME280;59762;49.998;14.858;2022-09-06T03:15:40;97785.69;;;14.08;91.54
71889;BME280;59762;49.998;14.858;2022-09-06T03:18:05;97780.78;;;14.05;91.04
71889;BME280;59762;49.998;14.858;2022-09-06T03:20:31;97782.28;;;14.01;90.22
71889;BME280;59762;49.998;14.858;2022-09-06T03:22:57;97776.09;;;14.00;90.12
71889;BME280;59762;49.998;14.858;2022-09-06T03:25:22;97773.44;;;14.00;89.71
71889;BME280;59762;49.998;14.858;2022-09-06T03:27:48;97778.78;;;14.00;91.19
71889;BME280;59762;49.998;14.858;2022-09-06T03:30:14;97779.84;;;13.99;89.68
71889;BME280;59762;49.998;14.858;2022-09-06T03:32:39;97775.88;;;14.02;88.40
71889;BME280;59762;49.998;14.858;2022-09-06T03:35:05;97782.72;;;13.98;89.87
71889;BME280;59762;49.998;14.858;2022-09-06T03:37:30;97778.16;;;13.86;91.62
71889;BME280;59762;49.998;14.858;2022-09-06T03:39:56;97774.97;;;13.78;93.36
71889;BME280;59762;49.998;14.858;2022-09-06T03:42:21;97779.59;;;13.71;94.10
71889;BME280;59762;49.998;14.858;2022-09-06T03:44:47;97780.28;;;13.66;94.49
71889;BME280;59762;49.998;14.858;2022-09-06T03:47:13;97779.91;;;13.62;94.70
71889;BME280;59762;49.998;14.858;2022-09-06T03:49:38;97779.91;;;13.62;93.95
71889;BME280;59762;49.998;14.858;2022-09-06T03:52:04;97775.16;;;13.65;94.37
71889;BME280;59762;49.998;14.858;2022-09-06T03:54:30;97781.31;;;13.65;94.62
71889;BME280;59762;49.998;14.858;2022-09-06T03:56:55;97779.69;;;13.64;93.62
71889;BME280;59762;49.998;14.858;2022-09-06T03:59:21;97779.47;;;13.66;91.48
71889;BME280;59762;49.998;14.858;2022-09-06T04:01:47;97773.19;;;13.72;90.54
71889;BME280;59762;49.998;14.858;2022-09-06T04:04:12;97771.69;;;13.76;91.27
71889;BME280;59762;49.998;14.858;2022-09-06T04:06:38;97786.31;;;13.61;94.56
71889;BME280;59762;49.998;14.858;2022-09-06T04:09:03;97780.69;;;13.51;96.14
71889;BME280;59762;49.998;14.858;2022-09-06T04:11:29;97784.47;;;13.44;96.49
71889;BME280;59762;49.998;14.858;2022-09-06T04:13:54;97783.50;;;13.38;96.95
71889;BME280;59762;49.998;14.858;2022-09-06T04:16:20;97778.16;;;13.38;96.98
71889;BME280;59762;49.998;14.858;2022-09-06T04:18:46;97787.44;;;13.35;97.40
71889;BME280;59762;49.998;14.858;2022-09-06T04:21:12;97781.72;;;13.32;97.93
71889;BME280;59762;49.998;14.858;2022-09-06T04:23:37;97787.06;;;13.32;98.49
71889;BME280;59762;49.998;14.858;2022-09-06T04:26:03;97781.94;;;13.30;98.28
71889;BME280;59762;49.998;14.858;2022-09-06T04:28:29;97769.38;;;13.31;99.20
71889;BME280;59762;49.998;14.858;2022-09-06T04:30:59;97777.41;;;13.31;99.07
71889;BME280;59762;49.998;14.858;2022-09-06T04:33:26;97776.72;;;13.35;99.34
71889;BME280;59762;49.998;14.858;2022-09-06T04:35:53;97778.75;;;13.40;99.88
71889;BME280;59762;49.998;14.858;2022-09-06T04:38:21;97774.34;;;13.46;98.99
71889;BME280;59762;49.998;14.858;2022-09-06T04:40:47;97774.94;;;13.48;98.26
71889;BME280;59762;49.998;14.858;2022-09-06T04:43:13;97779.88;;;13.51;96.61
71889;BME280;59762;49.998;14.858;2022-09-06T04:45:39;97783.50;;;13.56;97.33
71889;BME280;59762;49.998;14.858;2022-09-06T04:48:05;97786.75;;;13.58;96.94
71889;BME280;59762;49.998;14.858;2022-09-06T04:50:30;97795.00;;;13.57;97.97
71889;BME280;59762;49.998;14.858;2022-09-06T04:52:56;97785.34;;;13.56;98.61
71889;BME280;59762;49.998;14.858;2022-09-06T04:55:21;97782.97;;;13.48;98.35
71889;BME280;59762;49.998;14.858;2022-09-06T04:57:47;97781.72;;;13.50;99.64
71889;BME280;59762;49.998;14.858;2022-09-06T05:00:13;97781.50;;;13.52;99.79
71889;BME280;59762;49.998;14.858;2022-09-06T05:02:38;97781.06;;;13.55;98.68
71889;BME280;59762;49.998;14.858;2022-09-06T05:05:05;97777.69;;;13.59;98.51
71889;BME280;59762;49.998;14.858;2022-09-06T05:07:30;97780.50;;;13.65;97.67
71889;BME280;59762;49.998;14.858;2022-09-06T05:09:56;97774.47;;;13.69;96.70
71889;BME280;59762;49.998;14.858;2022-09-06T05:12:21;97778.47;;;13.78;96.50
71889;BME280;59762;49.998;14.858;2022-09-06T05:14:47;97777.34;;;13.86;95.54
71889;BME280;59762;49.998;14.858;2022-09-06T05:17:12;97775.50;;;13.98;95.06
71889;BME280;59762;49.998;14.858;2022-09-06T05:19:39;97778.22;;;14.10;94.50
71889;BME280;59762;49.998;14.858;2022-09-06T05:22:05;97773.72;;;14.22;94.88
71889;BME280;59762;49.998;14.858;2022-09-06T05:24:31;97776.88;;;14.31;92.99
71889;BME280;59762;49.998;14.858;2022-09-06T05:26:57;97779.34;;;14.44;91.47
71889;BME280;59762;49.998;14.858;2022-09-06T05:29:23;97782.03;;;14.44;93.03
71889;BME280;59762;49.998;14.858;2022-09-06T05:31:48;97782.19;;;14.49;93.63
71889;BME280;59762;49.998;14.858;2022-09-06T05:34:14;97788.22;;;14.56;93.63
71889;BME280;59762;49.998;14.858;2022-09-06T05:36:40;97779.28;;;14.62;93.32
71889;BME280;59762;49.998;14.858;2022-09-06T05:39:06;97781.50;;;14.66;92.67
71889;BME280;59762;49.998;14.858;2022-09-06T05:41:32;97783.50;;;14.70;91.65
71889;BME280;59762;49.998;14.858;2022-09-06T05:43:58;97782.56;;;14.76;90.21
71889;BME280;59762;49.998;14.858;2022-09-06T05:46:24;97778.34;;;14.80;89.74
71889;BME280;59762;49.998;14.858;2022-09-06T05:48:58;97776.72;;;14.79;87.88
71889;BME280;59762;49.998;14.858;2022-09-06T05:51:32;97763.53;;;14.78;87.12
71889;BME280;59762;49.998;14.858;2022-09-06T05:53:58;97765.44;;;14.66;86.19
71889;BME280;59762;49.998;14.858;2022-09-06T05:56:23;97764.81;;;14.63;86.47
71889;BME280;59762;49.998;14.858;2022-09-06T05:58:49;97769.94;;;14.65;85.58
71889;BME280;59762;49.998;14.858;2022-09-06T06:01:28;97775.44;;;14.70;85.96
71889;BME280;59762;49.998;14.858;2022-09-06T06:03:58;97775.56;;;14.75;85.94
71889;BME280;59762;49.998;14.858;2022-09-06T06:06:26;97776.25;;;14.82;84.62
71889;BME280;59762;49.998;14.858;2022-09-06T06:08:52;97777.88;;;14.95;85.38
71889;BME280;59762;49.998;14.858;2022-09-06T06:11:18;97791.03;;;15.08;87.06
71889;BME280;59762;49.998;14.858;2022-09-06T06:13:44;97786.94;;;15.29;86.36
71889;BME280;59762;49.998;14.858;2022-09-06T06:16:12;97793.69;;;15.44;87.08
71889;BME280;59762;49.998;14.858;2022-09-06T06:18:38;97797.28;;;15.49;86.20
71889;BME280;59762;49.998;14.858;2022-09-06T06:21:21;97800.34;;;15.41;86.20
71889;BME280;59762;49.998;14.858;2022-09-06T06:23:52;97793.31;;;15.40;87.33
71889;BME280;59762;49.998;14.858;2022-09-06T06:26:18;97802.53;;;15.44;88.12
71889;BME280;59762;49.998;14.858;2022-09-06T06:28:44;97793.94;;;15.42;87.00
71889;BME280;59762;49.998;14.858;2022-09-06T06:31:10;97797.22;;;15.32;88.96
71889;BME280;59762;49.998;14.858;2022-09-06T06:33:39;97793.56;;;15.50;90.07
71889;BME280;59762;49.998;14.858;2022-09-06T06:38:39;97790.22;;;16.12;84.04
71889;BME280;59762;49.998;14.858;2022-09-06T06:41:07;97783.91;;;16.52;78.05
71889;BME280;59762;49.998;14.858;2022-09-06T06:43:33;97782.19;;;16.96;78.51
71889;BME280;59762;49.998;14.858;2022-09-06T06:46:07;97790.44;;;17.28;76.46
71889;BME280;59762;49.998;14.858;2022-09-06T06:48:34;97781.78;;;17.48;75.37
71889;BME280;59762;49.998;14.858;2022-09-06T06:51:00;97771.38;;;17.57;74.68
71889;BME280;59762;49.998;14.858;2022-09-06T06:53:26;97761.56;;;17.68;70.67
71889;BME280;59762;49.998;14.858;2022-09-06T06:55:52;97765.50;;;17.38;70.25
71889;BME280;59762;49.998;14.858;2022-09-06T06:58:19;97758.69;;;17.52;71.04
71889;BME280;59762;49.998;14.858;2022-09-06T07:00:44;97757.25;;;17.67;71.17
71889;BME280;59762;49.998;14.858;2022-09-06T07:03:11;97759.56;;;17.80;71.89
71889;BME280;59762;49.998;14.858;2022-09-06T07:05:38;97760.16;;;17.87;74.33
71889;BME280;59762;49.998;14.858;2022-09-06T07:08:05;97768.88;;;17.94;72.18
71889;BME280;59762;49.998;14.858;2022-09-06T07:10:31;97764.31;;;17.95;70.69
71889;BME280;59762;49.998;14.858;2022-09-06T07:12:57;97762.97;;;17.97;68.13
71889;BME280;59762;49.998;14.858;2022-09-06T07:15:23;97761.75;;;18.10;71.11
71889;BME280;59762;49.998;14.858;2022-09-06T07:17:49;97758.94;;;18.27;72.28
71889;BME280;59762;49.998;14.858;2022-09-06T07:20:14;97765.31;;;18.15;69.90
71889;BME280;59762;49.998;14.858;2022-09-06T07:22:40;97757.06;;;18.00;66.54
71889;BME280;59762;49.998;14.858;2022-09-06T07:25:07;97764.22;;;18.11;67.99
71889;BME280;59762;49.998;14.858;2022-09-06T07:27:33;97770.00;;;17.98;68.00
71889;BME280;59762;49.998;14.858;2022-09-06T07:29:58;97764.09;;;18.28;68.69
71889;BME280;59762;49.998;14.858;2022-09-06T07:32:24;97767.06;;;18.32;67.57
71889;BME280;59762;49.998;14.858;2022-09-06T07:34:50;97762.56;;;18.10;63.04
71889;BME280;59762;49.998;14.858;2022-09-06T07:37:16;97774.22;;;18.16;65.30
71889;BME280;59762;49.998;14.858;2022-09-06T07:39:42;97777.00;;;18.26;62.74
71889;BME280;59762;49.998;14.858;2022-09-06T07:42:07;97785.66;;;18.28;62.44
71889;BME280;59762;49.998;14.858;2022-09-06T07:44:33;97788.59;;;18.59;67.56
71889;BME280;59762;49.998;14.858;2022-09-06T07:46:59;97783.50;;;18.62;62.57
71889;BME280;59762;49.998;14.858;2022-09-06T07:49:27;97783.97;;;18.54;61.43
71889;BME280;59762;49.998;14.858;2022-09-06T07:51:53;97784.25;;;18.53;62.33
71889;BME280;59762;49.998;14.858;2022-09-06T07:54:19;97776.13;;;18.80;63.98
71889;BME280;59762;49.998;14.858;2022-09-06T07:56:46;97780.16;;;18.77;65.87
71889;BME280;59762;49.998;14.858;2022-09-06T07:59:11;97782.31;;;18.80;64.40
71889;BME280;59762;49.998;14.858;2022-09-06T08:01:38;97769.94;;;18.84;63.63
71889;BME280;59762;49.998;14.858;2022-09-06T08:04:06;97768.84;;;18.48;59.94
71889;BME280;59762;49.998;14.858;2022-09-06T08:06:35;97768.91;;;18.58;63.18
71889;BME280;59762;49.998;14.858;2022-09-06T08:09:02;97762.94;;;18.51;64.33
71889;BME280;59762;49.998;14.858;2022-09-06T08:11:30;97763.00;;;18.61;63.67
71889;BME280;59762;49.998;14.858;2022-09-06T08:13:57;97759.94;;;18.48;62.69
71889;BME280;59762;49.998;14.858;2022-09-06T08:16:27;97762.09;;;18.78;65.83
71889;BME280;59762;49.998;14.858;2022-09-06T08:18:54;97759.53;;;18.66;60.00
71889;BME280;59762;49.998;14.858;2022-09-06T08:21:21;97756.09;;;18.71;62.02
71889;BME280;59762;49.998;14.858;2022-09-06T08:23:57;97767.91;;;18.64;63.54
71889;BME280;59762;49.998;14.858;2022-09-06T08:26:24;97763.66;;;18.74;64.30
71889;BME280;59762;49.998;14.858;2022-09-06T08:28:57;97766.13;;;18.80;62.14
71889;BME280;59762;49.998;14.858;2022-09-06T08:31:26;97765.97;;;18.97;65.43
71889;BME280;59762;49.998;14.858;2022-09-06T08:33:52;97769.28;;;19.04;63.96
71889;BME280;59762;49.998;14.858;2022-09-06T08:36:18;97763.78;;;18.94;61.93
71889;BME280;59762;49.998;14.858;2022-09-06T08:38:44;97756.75;;;18.88;62.40
71889;BME280;59762;49.998;14.858;2022-09-06T08:41:20;97760.53;;;18.87;63.51
71889;BME280;59762;49.998;14.858;2022-09-06T08:43:54;97757.38;;;19.00;66.71
71889;BME280;59762;49.998;14.858;2022-09-06T08:46:26;97756.28;;;19.01;63.57
71889;BME280;59762;49.998;14.858;2022-09-06T08:48:54;97754.19;;;19.13;65.59
71889;BME280;59762;49.998;14.858;2022-09-06T08:59:36;97752.44;;;19.39;64.62
71889;BME280;59762;49.998;14.858;2022-09-06T09:02:22;97747.13;;;19.65;65.79
71889;BME280;59762;49.998;14.858;2022-09-06T09:04:54;97745.28;;;19.76;65.98
71889;BME280;59762;49.998;14.858;2022-09-06T09:10:02;97764.25;;;19.91;64.49
71889;BME280;59762;49.998;14.858;2022-09-06T09:12:31;97759.69;;;20.02;61.83
71889;BME280;59762;49.998;14.858;2022-09-06T09:15:05;97770.25;;;20.19;62.99
71889;BME280;59762;49.998;14.858;2022-09-06T09:17:34;97771.88;;;20.14;64.97
71889;BME280;59762;49.998;14.858;2022-09-06T09:20:00;97769.19;;;20.25;60.05
71889;BME280;59762;49.998;14.858;2022-09-06T09:22:26;97763.53;;;20.41;62.38
71889;BME280;59762;49.998;14.858;2022-09-06T09:24:52;97758.63;;;20.38;63.19
71889;BME280;59762;49.998;14.858;2022-09-06T09:27:21;97751.59;;;20.42;60.82
71889;BME280;59762;49.998;14.858;2022-09-06T09:35:31;97754.84;;;20.19;62.80
71889;BME280;59762;49.998;14.858;2022-09-06T09:38:09;97754.81;;;20.14;63.33
71889;BME280;59762;49.998;14.858;2022-09-06T09:40:54;97748.88;;;20.22;62.82
71889;BME280;59762;49.998;14.858;2022-09-06T09:43:53;97739.97;;;20.22;62.68
71889;BME280;59762;49.998;14.858;2022-09-06T09:49:28;97725.34;;;20.07;62.88
71889;BME280;59762;49.998;14.858;2022-09-06T09:52:26;97720.47;;;20.09;64.46
71889;BME280;59762;49.998;14.858;2022-09-06T09:55:04;97717.78;;;20.30;64.74
71889;BME280;59762;49.998;14.858;2022-09-06T09:57:42;97715.63;;;20.73;66.62
71889;BME280;59762;49.998;14.858;2022-09-06T10:00:09;97710.97;;;20.94;61.92
71889;BME280;59762;49.998;14.858;2022-09-06T10:02:39;97702.84;;;21.04;59.50
71889;BME280;59762;49.998;14.858;2022-09-06T10:07:45;97710.66;;;21.10;62.06
71889;BME280;59762;49.998;14.858;2022-09-06T10:10:21;97700.41;;;20.97;61.71
71889;BME280;59762;49.998;14.858;2022-09-06T10:12:47;97701.44;;;21.16;60.79
71889;BME280;59762;49.998;14.858;2022-09-06T10:15:33;97696.81;;;21.17;60.89
71889;BME280;59762;49.998;14.858;2022-09-06T10:17:59;97698.13;;;21.30;60.90
71889;BME280;59762;49.998;14.858;2022-09-06T10:20:33;97699.78;;;21.15;61.02
71889;BME280;59762;49.998;14.858;2022-09-06T10:23:05;97705.44;;;21.29;60.71
71889;BME280;59762;49.998;14.858;2022-09-06T10:31:10;97697.09;;;21.15;61.22
71889;BME280;59762;49.998;14.858;2022-09-06T10:36:19;97695.41;;;21.25;62.68
71889;BME280;59762;49.998;14.858;2022-09-06T10:38:57;97682.47;;;21.11;63.38
71889;BME280;59762;49.998;14.858;2022-09-06T10:44:22;97672.31;;;20.78;61.98
71889;BME280;59762;49.998;14.858;2022-09-06T10:46:59;97671.47;;;20.82;62.17
71889;BME280;59762;49.998;14.858;2022-09-06T10:49:26;97686.91;;;20.82;64.88
71889;BME280;59762;49.998;14.858;2022-09-06T10:52:01;97675.03;;;20.57;62.51
71889;BME280;59762;49.998;14.858;2022-09-06T10:54:29;97673.44;;;20.56;63.99
71889;BME280;59762;49.998;14.858;2022-09-06T10:57:03;97669.63;;;20.62;62.74
71889;BME280;59762;49.998;14.858;2022-09-06T10:59:36;97673.16;;;20.68;62.73
71889;BME280;59762;49.998;14.858;2022-09-06T11:05:02;97671.72;;;20.91;59.56
71889;BME280;59762;49.998;14.858;2022-09-06T11:07:31;97669.53;;;20.98;61.21
71889;BME280;59762;49.998;14.858;2022-09-06T11:15:31;97675.16;;;21.72;59.93
71889;BME280;59762;49.998;14.858;2022-09-06T11:20:42;97683.56;;;21.75;58.98
71889;BME280;59762;49.998;14.858;2022-09-06T11:26:13;97676.88;;;21.57;59.13
71889;BME280;59762;49.998;14.858;2022-09-06T11:28:46;97674.25;;;21.42;59.49
71889;BME280;59762;49.998;14.858;2022-09-06T11:31:25;97669.69;;;21.32;59.06
71889;BME280;59762;49.998;14.858;2022-09-06T11:34:18;97669.63;;;21.48;62.12
71889;BME280;59762;49.998;14.858;2022-09-06T11:36:45;97661.25;;;21.44;60.42
71889;BME280;59762;49.998;14.858;2022-09-06T11:39:13;97659.53;;;21.58;59.27
71889;BME280;59762;49.998;14.858;2022-09-06T11:41:48;97647.63;;;21.54;59.21
71889;BME280;59762;49.998;14.858;2022-09-06T11:55:40;97632.81;;;21.81;59.98
71889;BME280;59762;49.998;14.858;2022-09-06T11:58:21;97627.75;;;22.03;60.39
71889;BME280;59762;49.998;14.858;2022-09-06T12:01:58;97629.16;;;22.01;58.39
71889;BME280;59762;49.998;14.858;2022-09-06T12:08:51;97624.28;;;22.32;58.66
71889;BME280;59762;49.998;14.858;2022-09-06T12:11:26;97618.50;;;22.09;55.72
71889;BME280;59762;49.998;14.858;2022-09-06T12:13:55;97617.44;;;22.05;57.71
71889;BME280;59762;49.998;14.858;2022-09-06T12:16:22;97610.97;;;22.01;58.03
71889;BME280;59762;49.998;14.858;2022-09-06T12:23:58;97580.50;;;22.14;58.47
71889;BME280;59762;49.998;14.858;2022-09-06T12:26:44;97590.16;;;22.26;59.69
71889;BME280;59762;49.998;14.858;2022-09-06T12:29:12;97584.47;;;21.93;60.00
71889;BME280;59762;49.998;14.858;2022-09-06T12:31:41;97585.91;;;21.80;60.55
71889;BME280;59762;49.998;14.858;2022-09-06T12:34:11;97588.47;;;21.66;58.32
71889;BME280;59762;49.998;14.858;2022-09-06T12:36:50;97585.41;;;21.78;60.14
71889;BME280;59762;49.998;14.858;2022-09-06T12:39:17;97586.41;;;21.87;60.48
71889;BME280;59762;49.998;14.858;2022-09-06T12:41:55;97583.84;;;22.01;59.40
71889;BME280;59762;49.998;14.858;2022-09-06T12:44:33;97581.09;;;22.06;60.34
71889;BME280;59762;49.998;14.858;2022-09-06T12:47:09;97578.63;;;22.10;60.12
71889;BME280;59762;49.998;14.858;2022-09-06T12:49:36;97577.44;;;22.21;58.71
71889;BME280;59762;49.998;14.858;2022-09-06T12:52:06;97573.69;;;22.17;57.64
71889;BME280;59762;49.998;14.858;2022-09-06T12:54:37;97572.91;;;22.11;57.10
71889;BME280;59762;49.998;14.858;2022-09-06T12:57:31;97568.63;;;22.05;61.13
71889;BME280;59762;49.998;14.858;2022-09-06T12:59:57;97570.75;;;22.13;60.34
71889;BME280;59762;49.998;14.858;2022-09-06T13:02:33;97569.47;;;22.30;57.96
71889;BME280;59762;49.998;14.858;2022-09-06T13:05:05;97560.25;;;22.31;57.60
71889;BME280;59762;49.998;14.858;2022-09-06T13:07:34;97556.78;;;22.25;57.51
71889;BME280;59762;49.998;14.858;2022-09-06T13:10:03;97554.31;;;22.29;58.38
71889;BME280;59762;49.998;14.858;2022-09-06T13:12:35;97547.22;;;22.33;55.90
71889;BME280;59762;49.998;14.858;2022-09-06T13:15:26;97551.47;;;22.39;56.60
71889;BME280;59762;49.998;14.858;2022-09-06T13:21:02;97543.41;;;22.34;56.63
71889;BME280;59762;49.998;14.858;2022-09-06T13:23:29;97543.50;;;22.24;57.41
71889;BME280;59762;49.998;14.858;2022-09-06T13:26:04;97546.84;;;22.15;59.01
71889;BME280;59762;49.998;14.858;2022-09-06T13:28:31;97547.91;;;22.20;62.13
71889;BME280;59762;49.998;14.858;2022-09-06T13:33:31;97542.34;;;22.30;58.27
71889;BME280;59762;49.998;14.858;2022-09-06T13:38:38;97536.72;;;22.50;59.25
71889;BME280;59762;49.998;14.858;2022-09-06T13:46:35;97532.66;;;22.72;55.90
71889;BME280;59762;49.998;14.858;2022-09-06T13:49:01;97551.06;;;22.75;54.60
71889;BME280;59762;49.998;14.858;2022-09-06T13:51:27;97548.00;;;22.81;57.49
71889;BME280;59762;49.998;14.858;2022-09-06T13:54:08;97552.25;;;22.87;56.99
71889;BME280;59762;49.998;14.858;2022-09-06T13:56:35;97544.06;;;22.92;56.98
71889;BME280;59762;49.998;14.858;2022-09-06T13:59:01;97545.91;;;22.97;55.38
71889;BME280;59762;49.998;14.858;2022-09-06T14:01:27;97553.19;;;23.02;55.99
71889;BME280;59762;49.998;14.858;2022-09-06T14:03:53;97551.56;;;23.01;56.43
71889;BME280;59762;49.998;14.858;2022-09-06T14:06:19;97552.97;;;22.98;53.51
71889;BME280;59762;49.998;14.858;2022-09-06T14:08:44;97549.09;;;23.04;55.92
71889;BME280;59762;49.998;14.858;2022-09-06T14:11:10;97548.06;;;23.00;53.25
71889;BME280;59762;49.998;14.858;2022-09-06T14:13:37;97553.78;;;22.75;56.39
71889;BME280;59762;49.998;14.858;2022-09-06T14:16:03;97550.97;;;22.61;58.05
71889;BME280;59762;49.998;14.858;2022-09-06T14:18:30;97547.56;;;22.50;56.91
71889;BME280;59762;49.998;14.858;2022-09-06T14:20:56;97554.13;;;22.68;57.01
71889;BME280;59762;49.998;14.858;2022-09-06T14:23:24;97541.53;;;22.77;57.95
71889;BME280;59762;49.998;14.858;2022-09-06T14:25:57;97536.28;;;22.86;55.41
71889;BME280;59762;49.998;14.858;2022-09-06T14:28:24;97535.66;;;22.94;56.71
71889;BME280;59762;49.998;14.858;2022-09-06T14:30:50;97537.66;;;23.07;57.35
71889;BME280;59762;49.998;14.858;2022-09-06T14:33:17;97533.91;;;23.03;57.57
71889;BME280;59762;49.998;14.858;2022-09-06T14:35:43;97530.50;;;22.69;55.81
71889;BME280;59762;49.998;14.858;2022-09-06T14:38:08;97535.41;;;22.66;54.12
71889;BME280;59762;49.998;14.858;2022-09-06T14:40:35;97532.03;;;22.56;56.12
71889;BME280;59762;49.998;14.858;2022-09-06T14:43:01;97524.81;;;22.46;57.76
71889;BME280;59762;49.998;14.858;2022-09-06T14:45:27;97530.94;;;22.33;57.66
71889;BME280;59762;49.998;14.858;2022-09-06T14:47:53;97528.72;;;22.35;60.11
71889;BME280;59762;49.998;14.858;2022-09-06T14:50:19;97526.88;;;22.30;58.84
71889;BME280;59762;49.998;14.858;2022-09-06T14:52:45;97521.94;;;22.37;59.11